createdAt,value
2018-11-20T00:01:08.780Z,13.97
2018-11-20T00:04:16.923Z,14.27
2018-11-20T00:10:50.857Z,15.07
2018-11-20T00:13:58.981Z,16.07
2018-11-20T00:17:07.930Z,15.57
2018-11-20T00:19:57.244Z,15.10
2018-11-20T00:23:05.446Z,16.27
2018-11-20T00:26:13.620Z,15.47
2018-11-20T00:29:21.798Z,19.00
2018-11-20T00:32:29.981Z,15.57
2018-11-20T00:35:38.135Z,17.40
2018-11-20T00:38:46.283Z,16.53
2018-11-20T00:41:54.453Z,16.40
2018-11-20T00:44:54.056Z,17.90
2018-11-20T00:48:02.196Z,14.53
2018-11-20T00:51:10.402Z,14.87
2018-11-20T00:54:18.704Z,16.40
2018-11-20T00:57:25.213Z,15.83
2018-11-20T01:00:20.908Z,14.97
2018-11-20T01:03:29.054Z,18.17
2018-11-20T01:06:37.227Z,17.30
2018-11-20T01:09:45.339Z,18.97
2018-11-20T01:12:53.707Z,14.30
2018-11-20T01:16:01.855Z,17.47
2018-11-20T01:19:10.208Z,15.10
2018-11-20T01:22:18.328Z,17.63
2018-11-20T01:25:26.518Z,16.00
2018-11-20T01:28:34.653Z,14.93
2018-11-20T01:31:42.819Z,16.93
2018-11-20T01:34:50.993Z,17.67
2018-11-20T01:37:48.061Z,18.30
2018-11-20T01:40:56.203Z,16.73
2018-11-20T01:44:04.374Z,16.17
2018-11-20T01:47:12.668Z,17.97
2018-11-20T01:50:20.836Z,18.87
2018-11-20T01:53:28.998Z,17.23
2018-11-20T01:56:37.135Z,17.23
2018-11-20T01:59:45.299Z,18.23
2018-11-20T02:02:53.456Z,17.87
2018-11-20T02:06:01.770Z,20.40
2018-11-20T02:09:09.965Z,21.40
2018-11-20T02:12:18.256Z,19.70
2018-11-20T02:15:26.417Z,19.57
2018-11-20T02:18:34.586Z,19.30
2018-11-20T02:21:42.744Z,19.33
2018-11-20T02:24:50.940Z,20.70
2018-11-20T02:27:59.093Z,20.03
2018-11-20T02:31:07.266Z,20.60
2018-11-20T02:34:15.622Z,20.10
2018-11-20T02:37:15.991Z,21.03
2018-11-20T02:40:24.397Z,21.63
2018-11-20T02:43:32.559Z,22.80
2018-11-20T02:46:40.863Z,21.33
2018-11-20T02:49:49.003Z,20.23
2018-11-20T02:52:57.236Z,18.73
2018-11-20T02:55:56.346Z,18.83
2018-11-20T02:59:04.511Z,18.17
2018-11-20T03:02:12.661Z,19.73
2018-11-20T03:05:20.861Z,20.70
2018-11-20T03:08:29.037Z,21.10
2018-11-20T03:11:37.225Z,22.43
2018-11-20T03:14:45.371Z,20.60
2018-11-20T03:17:53.560Z,19.90
2018-11-20T03:24:16.840Z,20.67
2018-11-20T03:27:25.029Z,23.03
2018-11-20T03:30:52.079Z,23.50
2018-11-20T03:34:01.002Z,20.83
2018-11-20T03:37:09.502Z,21.90
2018-11-20T03:40:17.639Z,23.30
2018-11-20T03:43:25.838Z,22.57
2018-11-20T03:46:33.989Z,23.87
2018-11-20T03:49:42.176Z,23.90
2018-11-20T03:56:17.950Z,22.40
2018-11-20T03:59:26.242Z,27.53
2018-11-20T04:02:34.377Z,20.97
2018-11-20T04:05:43.474Z,25.20
2018-11-20T04:08:51.738Z,24.23
2018-11-20T04:11:59.927Z,23.57
2018-11-20T04:18:34.700Z,24.17
2018-11-20T04:21:42.895Z,24.70
2018-11-20T04:24:51.055Z,24.43
2018-11-20T04:27:59.218Z,23.90
2018-11-20T04:31:26.294Z,26.77
2018-11-20T04:34:25.740Z,24.43
2018-11-20T04:37:33.965Z,26.53
2018-11-20T04:40:42.109Z,26.20
2018-11-20T04:43:50.274Z,26.77
2018-11-20T04:46:58.459Z,25.77
2018-11-20T04:50:06.906Z,28.37
2018-11-20T04:53:14.990Z,28.77
2018-11-20T04:56:23.230Z,25.60
2018-11-20T04:59:31.384Z,26.90
2018-11-20T05:02:39.579Z,28.40
2018-11-20T05:05:47.757Z,29.27
2018-11-20T05:08:55.907Z,29.50
2018-11-20T05:12:04.054Z,26.87
2018-11-20T05:15:12.209Z,31.13
2018-11-20T05:18:20.380Z,26.10
2018-11-20T05:21:28.533Z,22.97
2018-11-20T05:24:36.713Z,25.90
2018-11-20T05:27:44.971Z,29.50
2018-11-20T05:30:53.162Z,24.77
2018-11-20T05:33:59.530Z,29.03
2018-11-20T05:37:07.688Z,27.73
2018-11-20T05:40:15.904Z,23.73
2018-11-20T05:43:24.124Z,25.50
2018-11-20T05:46:32.325Z,26.77
2018-11-20T05:49:40.497Z,24.00
2018-11-20T05:52:48.684Z,25.10
2018-11-20T05:55:56.849Z,25.23
2018-11-20T05:59:05.024Z,28.13
2018-11-20T06:02:13.166Z,27.43
2018-11-20T06:05:21.291Z,30.00
2018-11-20T06:08:29.455Z,26.40
2018-11-20T06:11:37.592Z,26.47
2018-11-20T06:14:45.777Z,25.00
2018-11-20T06:17:53.988Z,23.67
2018-11-20T06:21:02.124Z,23.27
2018-11-20T06:24:10.354Z,26.03
2018-11-20T06:27:18.496Z,24.13
2018-11-20T06:30:27.314Z,25.97
2018-11-20T06:33:35.546Z,29.17
2018-11-20T06:36:43.810Z,28.40
2018-11-20T06:39:51.960Z,26.83
2018-11-20T06:43:00.140Z,26.10
2018-11-20T06:46:08.290Z,28.70
2018-11-20T06:49:16.516Z,27.63
2018-11-20T06:52:24.701Z,25.07
2018-11-20T06:55:32.831Z,27.73
2018-11-20T06:58:43.051Z,28.80
2018-11-20T07:01:49.378Z,26.43
2018-11-20T07:04:57.557Z,29.33
2018-11-20T07:07:48.535Z,27.33
2018-11-20T07:10:56.848Z,31.70
2018-11-20T07:17:41.622Z,31.17
2018-11-20T07:20:49.760Z,32.40
2018-11-20T07:23:58.674Z,32.80
2018-11-20T07:27:06.853Z,26.70
2018-11-20T07:30:15.107Z,27.20
2018-11-20T07:33:23.249Z,30.03
2018-11-20T07:36:29.073Z,35.07
2018-11-20T07:39:37.270Z,31.47
2018-11-20T07:42:45.460Z,33.07
2018-11-20T07:45:53.590Z,30.93
2018-11-20T07:49:02.070Z,28.93
2018-11-20T07:52:10.287Z,31.27
2018-11-20T07:55:18.438Z,34.77
2018-11-20T07:58:26.703Z,33.97
2018-11-20T08:01:34.895Z,35.63
2018-11-20T08:04:43.063Z,38.07
2018-11-20T08:07:51.293Z,34.37
2018-11-20T08:10:59.935Z,36.30
2018-11-20T08:14:06.243Z,35.17
2018-11-20T08:17:14.378Z,39.47
2018-11-20T08:20:13.468Z,39.03
2018-11-20T08:23:21.594Z,37.57
2018-11-20T08:26:30.043Z,33.13
2018-11-20T08:29:27.211Z,35.03
2018-11-20T08:32:35.380Z,35.07
2018-11-20T08:35:43.671Z,32.60
2018-11-20T08:38:53.533Z,34.80
2018-11-20T08:42:01.723Z,31.10
2018-11-20T08:45:09.868Z,34.77
2018-11-20T08:48:18.150Z,32.37
2018-11-20T08:51:19.029Z,33.97
2018-11-20T08:54:23.177Z,33.13
2018-11-20T08:57:21.839Z,33.97
2018-11-20T09:00:22.389Z,30.13
2018-11-20T09:03:23.177Z,34.93
2018-11-20T09:06:29.316Z,28.50
2018-11-20T09:09:33.080Z,30.27
2018-11-20T09:12:33.444Z,32.80
2018-11-20T09:15:34.018Z,33.07
2018-11-20T09:18:34.867Z,33.33
2018-11-20T09:21:35.089Z,33.50
2018-11-20T09:24:41.601Z,31.00
2018-11-20T09:27:42.299Z,30.20
2018-11-20T09:30:42.514Z,30.17
2018-11-20T09:33:42.780Z,30.43
2018-11-20T09:36:33.863Z,30.33
2018-11-20T09:39:42.066Z,30.33
2018-11-20T09:42:51.294Z,29.17
2018-11-20T09:46:18.433Z,28.73
2018-11-20T09:49:26.569Z,30.50
2018-11-20T09:52:34.813Z,26.43
2018-11-20T09:55:42.967Z,29.57
2018-11-20T09:58:51.130Z,29.60
2018-11-20T10:01:59.280Z,26.93
2018-11-20T10:04:48.509Z,28.23
2018-11-20T10:07:56.704Z,27.00
2018-11-20T10:11:04.862Z,29.43
2018-11-20T10:14:13.138Z,25.83
2018-11-20T10:17:21.313Z,28.97
2018-11-20T10:20:29.563Z,30.87
2018-11-20T10:23:37.740Z,29.77
2018-11-20T10:26:45.905Z,26.77
2018-11-20T10:29:54.058Z,25.97
2018-11-20T10:33:01.584Z,23.77
2018-11-20T10:36:09.628Z,26.83
2018-11-20T10:39:17.798Z,29.00
2018-11-20T10:42:26.019Z,23.53
2018-11-20T10:45:34.238Z,23.83
2018-11-20T10:48:42.341Z,28.80
2018-11-20T10:51:50.485Z,27.43
2018-11-20T10:54:58.660Z,29.47
2018-11-20T10:58:06.820Z,24.23
2018-11-20T11:01:15.076Z,26.23
2018-11-20T11:04:23.297Z,27.57
2018-11-20T11:07:31.493Z,28.30
2018-11-20T11:10:40.422Z,27.23
2018-11-20T11:17:22.309Z,25.83
2018-11-20T11:20:20.948Z,26.63
2018-11-20T11:23:29.083Z,27.07
2018-11-20T11:26:18.288Z,29.93
2018-11-20T11:29:26.476Z,26.50
2018-11-20T11:32:35.010Z,26.50
2018-11-20T11:35:43.179Z,24.93
2018-11-20T11:38:32.442Z,28.70
2018-11-20T11:41:21.698Z,28.83
2018-11-20T11:44:29.890Z,24.80
2018-11-20T11:47:38.025Z,22.07
2018-11-20T11:50:38.451Z,24.20
2018-11-20T11:53:46.672Z,23.33
2018-11-20T11:56:54.878Z,24.17
2018-11-20T11:59:55.302Z,25.17
2018-11-20T12:06:10.796Z,22.77
2018-11-20T12:09:18.979Z,26.03
2018-11-20T12:12:27.112Z,24.53
2018-11-20T12:15:26.832Z,27.27
2018-11-20T12:18:34.998Z,26.63
2018-11-20T12:21:43.191Z,28.33
2018-11-20T12:24:51.359Z,25.27
2018-11-20T12:27:59.499Z,26.23
2018-11-20T12:31:09.413Z,27.00
2018-11-20T12:34:16.773Z,30.50
2018-11-20T12:37:24.540Z,28.23
2018-11-20T12:40:32.967Z,28.17
2018-11-20T12:43:40.787Z,25.97
2018-11-20T12:46:50.929Z,23.63
2018-11-20T12:49:57.078Z,26.10
2018-11-20T12:53:05.255Z,28.53
2018-11-20T12:56:14.014Z,25.83
2018-11-20T12:59:21.711Z,26.17
2018-11-20T13:02:29.898Z,30.30
2018-11-20T13:05:38.085Z,23.67
2018-11-20T13:08:46.664Z,25.67
2018-11-20T13:11:54.878Z,27.40
2018-11-20T13:15:03.848Z,23.50
2018-11-20T13:18:12.032Z,27.67
2018-11-20T13:21:20.173Z,28.07
2018-11-20T13:24:29.507Z,31.03
2018-11-20T13:27:36.491Z,23.20
2018-11-20T13:30:44.665Z,29.70
2018-11-20T13:33:52.830Z,27.67
2018-11-20T13:37:00.975Z,26.93
2018-11-20T13:40:09.135Z,25.27
2018-11-20T13:43:17.349Z,28.80
2018-11-20T13:46:25.544Z,26.60
2018-11-20T13:49:33.701Z,27.07
2018-11-20T13:52:41.879Z,28.23
2018-11-20T13:55:51.610Z,24.13
2018-11-20T13:58:58.272Z,24.57
2018-11-20T14:02:06.427Z,25.50
2018-11-20T14:05:14.604Z,25.67
2018-11-20T14:08:23.265Z,25.50
2018-11-20T14:11:36.445Z,26.37
2018-11-20T14:14:39.724Z,27.90
2018-11-20T14:17:47.896Z,26.53
2018-11-20T14:20:56.050Z,26.40
2018-11-20T14:24:04.355Z,26.27
2018-11-20T14:27:12.535Z,24.93
2018-11-20T14:30:20.703Z,28.03
2018-11-20T14:33:28.835Z,26.70
2018-11-20T14:36:36.983Z,24.47
2018-11-20T14:39:44.256Z,28.67
2018-11-20T14:42:52.400Z,26.17
2018-11-20T14:46:00.938Z,27.50
2018-11-20T14:49:09.073Z,27.60
2018-11-20T14:52:17.288Z,25.60
2018-11-20T14:55:25.459Z,28.50
2018-11-20T14:58:33.665Z,33.30
2018-11-20T15:01:41.851Z,33.87
2018-11-20T15:04:49.988Z,33.70
2018-11-20T15:07:59.278Z,32.83
2018-11-20T15:10:47.451Z,32.47
2018-11-20T15:13:55.939Z,35.90
2018-11-20T15:17:04.093Z,36.00
2018-11-20T15:20:12.254Z,36.77
2018-11-20T15:23:20.440Z,40.20
2018-11-20T15:26:28.597Z,40.23
2018-11-20T15:29:36.757Z,38.77
2018-11-20T15:32:44.924Z,41.80
2018-11-20T15:35:53.109Z,39.80
2018-11-20T15:39:01.331Z,38.20
2018-11-20T15:42:09.460Z,42.77
2018-11-20T15:45:17.636Z,47.10
2018-11-20T15:48:25.759Z,43.53
2018-11-20T15:51:33.970Z,45.77
2018-11-20T15:54:42.108Z,46.10
2018-11-20T15:57:50.283Z,44.13
2018-11-20T16:00:58.526Z,46.17
2018-11-20T16:04:06.682Z,52.60
2018-11-20T16:07:14.337Z,50.40
2018-11-20T16:10:21.724Z,53.67
2018-11-20T16:13:29.767Z,49.73
2018-11-20T16:16:37.956Z,59.70
2018-11-20T16:19:47.577Z,52.33
2018-11-20T16:22:55.742Z,54.73
2018-11-20T16:26:03.967Z,56.77
2018-11-20T16:29:12.168Z,56.93
2018-11-20T16:32:21.759Z,61.17
2018-11-20T16:35:29.938Z,56.03
2018-11-20T16:38:38.157Z,54.90
2018-11-20T16:41:46.310Z,62.43
2018-11-20T16:44:54.508Z,58.90
2018-11-20T16:48:02.626Z,54.57
2018-11-20T16:51:10.821Z,56.83
2018-11-20T16:54:18.985Z,56.23
2018-11-20T16:57:27.121Z,63.20
2018-11-20T17:00:35.306Z,59.30
2018-11-20T17:03:43.429Z,64.17
2018-11-20T17:06:51.602Z,64.97
2018-11-20T17:13:22.723Z,72.00
2018-11-20T17:16:30.917Z,58.67
2018-11-20T17:19:39.117Z,63.83
2018-11-20T17:22:47.271Z,58.13
2018-11-20T17:25:55.578Z,57.80
2018-11-20T17:29:03.733Z,62.30
2018-11-20T17:35:38.220Z,62.57
2018-11-20T17:38:46.387Z,59.77
2018-11-20T17:45:19.527Z,65.67
2018-11-20T17:48:27.702Z,53.30
2018-11-20T17:51:35.880Z,60.07
2018-11-20T17:54:44.029Z,58.53
2018-11-20T17:57:57.023Z,55.43
2018-11-20T18:01:00.428Z,58.30
2018-11-20T18:04:08.588Z,59.80
2018-11-20T18:07:16.756Z,54.67
2018-11-20T18:10:25.718Z,54.37
2018-11-20T18:13:33.876Z,55.20
2018-11-20T18:16:31.214Z,59.10
2018-11-20T18:19:39.412Z,51.97
2018-11-20T18:22:47.582Z,53.97
2018-11-20T18:25:55.736Z,54.77
2018-11-20T18:29:03.925Z,46.93
2018-11-20T18:32:13.300Z,47.87
2018-11-20T18:35:21.468Z,46.90
2018-11-20T18:38:29.610Z,43.50
2018-11-20T18:41:37.795Z,45.00
2018-11-20T18:44:45.966Z,43.87
2018-11-20T18:47:54.148Z,43.40
2018-11-20T18:51:02.290Z,37.90
2018-11-20T18:54:10.878Z,44.70
2018-11-20T18:57:19.306Z,40.50
2018-11-20T19:00:19.225Z,39.00
2018-11-20T19:03:26.189Z,35.03
2018-11-20T19:06:34.456Z,39.60
2018-11-20T19:09:43.267Z,35.87
2018-11-20T19:12:52.068Z,35.13
2018-11-20T19:16:01.747Z,35.90
2018-11-20T19:19:06.301Z,36.23
2018-11-20T19:22:15.115Z,38.83
2018-11-20T19:25:23.442Z,36.73
2018-11-20T19:28:31.985Z,37.13
2018-11-20T19:31:41.614Z,39.23
2018-11-20T19:34:49.382Z,40.00
2018-11-20T19:37:57.670Z,38.83
2018-11-20T19:41:05.830Z,37.33
2018-11-20T19:44:14.168Z,39.97
2018-11-20T19:47:23.183Z,38.33
2018-11-20T19:50:31.823Z,40.13
2018-11-20T19:53:40.319Z,41.20
2018-11-20T19:56:48.847Z,38.73
2018-11-20T19:59:57.135Z,41.30
2018-11-20T20:03:05.419Z,41.57
2018-11-20T20:06:13.691Z,43.33
2018-11-20T20:09:21.852Z,41.13
2018-11-20T20:12:30.032Z,40.47
2018-11-20T20:18:55.492Z,41.93
2018-11-20T20:22:03.803Z,41.10
2018-11-20T20:25:12.013Z,39.90
2018-11-20T20:28:18.247Z,41.07
2018-11-20T20:31:21.968Z,44.63
2018-11-20T20:34:25.431Z,44.33
2018-11-20T20:37:26.268Z,42.73
2018-11-20T20:40:26.773Z,43.53
2018-11-20T20:46:47.535Z,43.83
2018-11-20T20:49:54.865Z,45.90
2018-11-20T20:52:56.015Z,43.60
2018-11-20T20:55:56.361Z,50.47
2018-11-20T20:58:41.139Z,45.23
2018-11-20T21:01:45.222Z,45.93
2018-11-20T21:04:34.172Z,42.17
2018-11-20T21:07:34.765Z,41.43
2018-11-20T21:10:41.154Z,45.90
2018-11-20T21:13:42.297Z,41.67
2018-11-20T21:16:43.355Z,41.23
2018-11-20T21:19:44.479Z,41.60
2018-11-20T21:25:54.013Z,42.30
2018-11-20T21:29:02.160Z,43.80
2018-11-20T21:32:10.320Z,43.67
2018-11-20T21:35:18.608Z,43.13
2018-11-20T21:38:26.881Z,44.47
2018-11-20T21:41:35.092Z,44.13
2018-11-20T21:44:43.346Z,47.13
2018-11-20T21:47:51.542Z,48.53
2018-11-20T21:50:59.717Z,45.40
2018-11-20T21:54:07.865Z,47.87
2018-11-20T21:57:16.063Z,47.03
2018-11-20T22:00:29.804Z,49.40
2018-11-20T22:03:37.988Z,45.63
2018-11-20T22:06:41.678Z,51.07
2018-11-20T22:09:49.806Z,54.83
2018-11-20T22:12:53.672Z,54.50
2018-11-20T22:16:01.827Z,54.57
2018-11-20T22:19:09.990Z,55.13
2018-11-20T22:22:18.146Z,62.13
2018-11-20T22:25:26.322Z,61.90
2018-11-20T22:28:34.513Z,56.77
2018-11-20T22:31:42.687Z,55.47
2018-11-20T22:34:50.865Z,61.37
2018-11-20T22:37:59.083Z,64.40
2018-11-20T22:41:07.255Z,59.87
2018-11-20T22:44:15.418Z,65.70
2018-11-20T22:47:23.603Z,62.80
2018-11-20T22:50:31.770Z,59.17
2018-11-20T22:57:00.152Z,59.67
2018-11-20T23:00:08.296Z,63.77
2018-11-20T23:03:16.546Z,61.30
2018-11-20T23:06:23.751Z,68.67
2018-11-20T23:09:13.247Z,66.13
2018-11-20T23:18:06.837Z,65.77
2018-11-20T23:20:56.322Z,65.57
2018-11-20T23:23:45.829Z,62.80
2018-11-20T23:26:35.767Z,64.03
2018-11-20T23:29:24.773Z,58.63
2018-11-20T23:32:14.280Z,67.77
2018-11-20T23:35:03.738Z,68.43
2018-11-20T23:37:53.872Z,67.47
2018-11-20T23:40:43.319Z,65.83
2018-11-20T23:46:47.366Z,70.07
2018-11-20T23:59:21.555Z,66.77
